createdAt,value
2017-10-03T00:00:45.232Z,14.72
2017-10-03T00:01:44.907Z,14.7
2017-10-03T00:02:45.227Z,14.78
2017-10-03T00:03:45.215Z,14.69
2017-10-03T00:04:45.208Z,14.8
2017-10-03T00:05:45.206Z,14.81
2017-10-03T00:06:45.214Z,14.77
2017-10-03T00:07:44.871Z,14.89
2017-10-03T00:08:45.186Z,14.84
2017-10-03T00:09:45.176Z,14.91
2017-10-03T00:10:45.171Z,14.88
2017-10-03T00:11:44.845Z,14.88
2017-10-03T00:12:45.158Z,14.91
2017-10-03T00:13:45.152Z,14.94
2017-10-03T00:14:45.145Z,14.86
2017-10-03T00:15:45.133Z,14.94
2017-10-03T00:16:45.140Z,14.92
2017-10-03T00:17:45.130Z,14.98
2017-10-03T00:18:44.802Z,14.94
2017-10-03T00:19:44.794Z,14.89
2017-10-03T00:20:45.109Z,15.01
2017-10-03T00:21:44.781Z,14.94
2017-10-03T00:22:45.095Z,14.99
2017-10-03T00:23:45.089Z,14.91
2017-10-03T00:24:45.084Z,14.89
2017-10-03T00:25:45.091Z,14.88
2017-10-03T00:26:44.752Z,14.96
2017-10-03T00:27:45.064Z,14.86
2017-10-03T00:28:44.736Z,14.83
2017-10-03T00:29:45.050Z,14.89
2017-10-03T00:30:44.726Z,14.89
2017-10-03T00:31:45.040Z,14.86
2017-10-03T00:32:45.032Z,14.8
2017-10-03T00:33:44.387Z,14.81
2017-10-03T00:34:44.379Z,14.64
2017-10-03T00:35:45.017Z,14.62
2017-10-03T00:36:44.689Z,14.58
2017-10-03T00:37:45.004Z,14.61
2017-10-03T00:38:44.678Z,14.54
2017-10-03T00:39:45.089Z,14.47
2017-10-03T00:40:44.984Z,14.47
2017-10-03T00:41:44.977Z,14.4
2017-10-03T00:42:44.969Z,14.4
2017-10-03T00:43:44.961Z,14.32
2017-10-03T00:44:44.641Z,14.27
2017-10-03T00:45:44.948Z,14.22
2017-10-03T00:46:44.941Z,14.27
2017-10-03T00:47:44.617Z,14.24
2017-10-03T00:48:44.930Z,14.32
2017-10-03T00:49:44.921Z,14.32
2017-10-03T00:50:44.917Z,14.33
2017-10-03T00:51:44.908Z,14.24
2017-10-03T00:52:44.904Z,14.32
2017-10-03T00:53:44.579Z,14.32
2017-10-03T00:54:44.887Z,14.22
2017-10-03T00:55:44.888Z,14.28
2017-10-03T00:56:44.880Z,14.21
2017-10-03T00:57:44.552Z,14.15
2017-10-03T00:58:44.864Z,14.17
2017-10-03T00:59:44.859Z,14.17
2017-10-03T01:00:44.532Z,14.17
2017-10-03T01:01:44.846Z,14.17
2017-10-03T01:02:44.838Z,14.2
2017-10-03T01:03:44.833Z,14.21
2017-10-03T01:04:44.509Z,14.2
2017-10-03T01:05:44.814Z,14.17
2017-10-03T01:06:44.809Z,14.21
2017-10-03T01:07:44.803Z,14.21
2017-10-03T01:08:44.798Z,14.21
2017-10-03T01:09:44.472Z,14.17
2017-10-03T01:10:44.787Z,14.12
2017-10-03T01:11:44.456Z,14.17
2017-10-03T01:12:44.769Z,14.14
2017-10-03T01:13:44.772Z,14.14
2017-10-03T01:14:44.435Z,14.12
2017-10-03T01:15:44.748Z,14.1
2017-10-03T01:16:44.747Z,14.09
2017-10-03T01:17:44.420Z,14.07
2017-10-03T01:18:44.729Z,14.09
2017-10-03T01:19:44.728Z,14.09
2017-10-03T01:20:44.719Z,14.17
2017-10-03T01:21:44.714Z,14.06
2017-10-03T01:22:44.725Z,14.1
2017-10-03T01:23:44.699Z,14.07
2017-10-03T01:24:44.692Z,14.1
2017-10-03T01:25:44.683Z,14.2
2017-10-03T01:26:44.361Z,14.09
2017-10-03T01:27:44.670Z,14.07
2017-10-03T01:28:44.665Z,14.1
2017-10-03T01:29:44.657Z,14.15
2017-10-03T01:30:44.651Z,14.1
2017-10-03T01:31:44.642Z,14.07
2017-10-03T01:32:44.322Z,13.97
2017-10-03T01:33:44.629Z,14.06
2017-10-03T01:34:44.623Z,14.04
2017-10-03T01:35:43.979Z,14.02
2017-10-03T01:36:44.609Z,14
2017-10-03T01:37:44.606Z,14
2017-10-03T01:38:44.596Z,13.97
2017-10-03T01:39:44.589Z,13.84
2017-10-03T01:40:44.583Z,14
2017-10-03T01:41:44.257Z,13.97
2017-10-03T01:42:44.574Z,13.85
2017-10-03T01:43:44.241Z,13.91
2017-10-03T01:44:44.555Z,13.84
2017-10-03T01:45:44.551Z,13.81
2017-10-03T01:46:44.544Z,13.99
2017-10-03T01:47:44.217Z,13.88
2017-10-03T01:48:44.531Z,13.89
2017-10-03T01:49:44.521Z,13.88
2017-10-03T01:50:44.517Z,13.88
2017-10-03T01:51:44.512Z,13.87
2017-10-03T01:52:44.184Z,13.88
2017-10-03T01:53:44.493Z,13.84
2017-10-03T01:54:43.850Z,13.7
2017-10-03T01:55:44.165Z,13.73
2017-10-03T01:56:44.483Z,13.75
2017-10-03T01:57:44.470Z,13.81
2017-10-03T01:58:44.461Z,13.79
2017-10-03T01:59:44.454Z,13.77
2017-10-03T02:00:44.130Z,13.7
2017-10-03T02:01:44.440Z,13.71
2017-10-03T02:02:44.435Z,13.73
2017-10-03T02:03:44.126Z,13.69
2017-10-03T02:04:44.428Z,13.67
2017-10-03T02:05:44.414Z,13.66
2017-10-03T02:06:44.406Z,13.64
2017-10-03T02:07:44.399Z,13.75
2017-10-03T02:08:44.392Z,13.57
2017-10-03T02:09:44.389Z,13.69
2017-10-03T02:10:44.377Z,13.59
2017-10-03T02:11:44.371Z,13.66
2017-10-03T02:12:44.360Z,13.63
2017-10-03T02:13:44.357Z,13.63
2017-10-03T02:14:44.351Z,13.6
2017-10-03T02:15:44.345Z,13.59
2017-10-03T02:16:44.013Z,13.59
2017-10-03T02:17:44.329Z,13.59
2017-10-03T02:18:44.002Z,13.52
2017-10-03T02:19:44.313Z,13.59
2017-10-03T02:20:44.313Z,13.54
2017-10-03T02:21:44.299Z,13.54
2017-10-03T02:22:44.294Z,13.55
2017-10-03T02:23:43.964Z,13.59
2017-10-03T02:24:44.277Z,13.55
2017-10-03T02:25:44.275Z,13.52
2017-10-03T02:26:44.267Z,13.49
2017-10-03T02:27:44.257Z,13.55
2017-10-03T02:28:44.254Z,13.51
2017-10-03T02:29:44.247Z,13.52
2017-10-03T02:30:44.244Z,13.55
2017-10-03T02:31:44.225Z,13.39
2017-10-03T02:32:44.233Z,13.55
2017-10-03T02:33:44.234Z,13.54
2017-10-03T02:34:43.891Z,13.52
2017-10-03T02:35:44.204Z,13.42
2017-10-03T02:36:44.196Z,13.41
2017-10-03T02:37:44.193Z,13.45
2017-10-03T02:38:44.181Z,13.44
2017-10-03T02:39:44.177Z,13.33
2017-10-03T02:40:44.172Z,13.36
2017-10-03T02:41:44.161Z,13.33
2017-10-03T02:42:44.152Z,13.38
2017-10-03T02:43:44.148Z,13.28
2017-10-03T02:44:44.151Z,13.3
2017-10-03T02:45:44.132Z,13.32
2017-10-03T02:46:44.125Z,13.3
2017-10-03T02:47:43.797Z,13.23
2017-10-03T02:48:44.110Z,13.32
2017-10-03T02:49:44.106Z,13.23
2017-10-03T02:50:43.779Z,13.26
2017-10-03T02:51:43.771Z,13.32
2017-10-03T02:52:44.076Z,13.32
2017-10-03T02:53:44.075Z,13.23
2017-10-03T02:54:43.747Z,13.28
2017-10-03T02:55:44.061Z,13.29
2017-10-03T02:56:44.057Z,13.26
2017-10-03T02:57:44.043Z,13.22
2017-10-03T02:58:44.036Z,13.25
2017-10-03T02:59:44.030Z,13.23
2017-10-03T03:00:44.022Z,13.25
2017-10-03T03:01:44.014Z,13.28
2017-10-03T03:02:44.009Z,13.23
2017-10-03T03:03:43.684Z,13.23
2017-10-03T03:04:43.994Z,13.25
2017-10-03T03:05:43.669Z,13.14
2017-10-03T03:06:43.982Z,13.22
2017-10-03T03:07:43.972Z,13.19
2017-10-03T03:08:43.646Z,13.22
2017-10-03T03:09:43.955Z,13.14
2017-10-03T03:10:43.954Z,13.11
2017-10-03T03:11:43.949Z,13.17
2017-10-03T03:12:43.942Z,13.22
2017-10-03T03:13:43.934Z,13.2
2017-10-03T03:14:43.923Z,13.22
2017-10-03T03:15:43.914Z,13.17
2017-10-03T03:16:43.909Z,13.12
2017-10-03T03:17:43.902Z,13.15
2017-10-03T03:18:43.897Z,13.11
2017-10-03T03:19:43.883Z,13.15
2017-10-03T03:20:43.559Z,13.17
2017-10-03T03:21:43.871Z,13.12
2017-10-03T03:22:43.543Z,13.12
2017-10-03T03:23:43.855Z,13.14
2017-10-03T03:24:43.847Z,13.19
2017-10-03T03:25:43.523Z,13.19
2017-10-03T03:26:43.517Z,13.17
2017-10-03T03:27:43.827Z,13.17
2017-10-03T03:28:43.822Z,13.17
2017-10-03T03:29:43.812Z,13.08
2017-10-03T03:30:43.815Z,13.14
2017-10-03T03:31:43.796Z,13.17
2017-10-03T03:32:43.789Z,13.17
2017-10-03T03:33:43.786Z,13.14
2017-10-03T03:34:43.778Z,13.12
2017-10-03T03:35:43.770Z,13.12
2017-10-03T03:36:43.763Z,13.11
2017-10-03T03:37:43.753Z,13.1
2017-10-03T03:38:43.751Z,13.11
2017-10-03T03:39:43.739Z,13.12
2017-10-03T03:40:43.736Z,13.15
2017-10-03T03:41:43.730Z,13.14
2017-10-03T03:42:43.397Z,13.1
2017-10-03T03:43:43.715Z,13.1
2017-10-03T03:44:43.706Z,13.11
2017-10-03T03:45:43.693Z,13.17
2017-10-03T03:46:43.369Z,13.17
2017-10-03T03:47:43.676Z,13.19
2017-10-03T03:48:43.673Z,13.19
2017-10-03T03:49:43.665Z,13.14
2017-10-03T03:50:43.658Z,13.19
2017-10-03T03:51:43.649Z,13.17
2017-10-03T03:52:43.649Z,13.17
2017-10-03T03:53:43.636Z,13.17
2017-10-03T03:54:43.625Z,13.14
2017-10-03T03:55:43.624Z,13.22
2017-10-03T03:56:43.614Z,13.26
2017-10-03T03:57:43.607Z,13.17
2017-10-03T03:58:43.599Z,13.22
2017-10-03T03:59:43.272Z,13.14
2017-10-03T04:00:43.265Z,13.22
2017-10-03T04:01:42.940Z,13.14
2017-10-03T04:02:43.567Z,13.17
2017-10-03T04:03:43.565Z,13.26
2017-10-03T04:04:43.557Z,13.23
2017-10-03T04:05:43.546Z,13.25
2017-10-03T04:06:43.538Z,13.19
2017-10-03T04:07:43.533Z,13.28
2017-10-03T04:08:43.530Z,13.28
2017-10-03T04:09:43.521Z,13.2
2017-10-03T04:10:43.193Z,13.15
2017-10-03T04:11:43.184Z,13.2
2017-10-03T04:12:43.175Z,13.23
2017-10-03T04:13:43.491Z,13.14
2017-10-03T04:14:43.481Z,13.14
2017-10-03T04:15:43.475Z,13.1
2017-10-03T04:16:43.467Z,13.14
2017-10-03T04:17:43.460Z,13.05
2017-10-03T04:18:43.458Z,13.11
2017-10-03T04:19:43.455Z,13
2017-10-03T04:20:43.444Z,13.01
2017-10-03T04:21:43.433Z,13.1
2017-10-03T04:22:43.105Z,13.01
2017-10-03T04:23:43.415Z,12.97
2017-10-03T04:24:43.414Z,12.93
2017-10-03T04:25:43.403Z,12.92
2017-10-03T04:26:43.076Z,13
2017-10-03T04:27:43.391Z,12.9
2017-10-03T04:28:43.380Z,12.97
2017-10-03T04:29:43.373Z,13.03
2017-10-03T04:30:43.368Z,12.86
2017-10-03T04:31:43.361Z,12.97
2017-10-03T04:32:43.352Z,13.01
2017-10-03T04:33:43.341Z,13.05
2017-10-03T04:34:43.020Z,13.01
2017-10-03T04:35:43.328Z,13.03
2017-10-03T04:36:43.317Z,13.03
2017-10-03T04:37:43.311Z,13.08
2017-10-03T04:38:43.312Z,13.01
2017-10-03T04:39:43.295Z,12.97
2017-10-03T04:40:43.285Z,13.04
2017-10-03T04:41:43.286Z,13.01
2017-10-03T04:42:43.276Z,12.95
2017-10-03T04:43:43.263Z,13.04
2017-10-03T04:44:43.257Z,13.01
2017-10-03T04:45:43.254Z,13.01
2017-10-03T04:46:43.244Z,12.97
2017-10-03T04:47:43.246Z,12.96
2017-10-03T04:48:43.231Z,12.9
2017-10-03T04:49:43.225Z,13.01
2017-10-03T04:50:43.212Z,13
2017-10-03T04:51:43.211Z,12.97
2017-10-03T04:52:43.212Z,13.05
2017-10-03T04:53:43.191Z,13.03
2017-10-03T04:54:43.186Z,13.08
2017-10-03T04:55:43.180Z,13.05
2017-10-03T04:56:43.174Z,13.11
2017-10-03T04:57:43.164Z,13.1
2017-10-03T04:58:43.155Z,13.15
2017-10-03T04:59:43.148Z,13.14
2017-10-03T05:00:43.141Z,13.17
2017-10-03T05:01:43.134Z,13.15
2017-10-03T05:02:43.132Z,13.22
2017-10-03T05:03:43.123Z,13.23
2017-10-03T05:04:42.791Z,13.2
2017-10-03T05:05:42.784Z,13.15
2017-10-03T05:06:42.779Z,13.28
2017-10-03T05:07:42.770Z,13.25
2017-10-03T05:08:43.081Z,13.22
2017-10-03T05:09:42.756Z,13.25
2017-10-03T05:10:42.749Z,13.22
2017-10-03T05:11:43.062Z,13.23
2017-10-03T05:12:42.735Z,13.3
2017-10-03T05:13:43.042Z,13.29
2017-10-03T05:14:43.040Z,13.22
2017-10-03T05:15:42.711Z,13.19
2017-10-03T05:16:43.026Z,13.25
2017-10-03T05:17:43.021Z,13.25
2017-10-03T05:18:43.010Z,13.28
2017-10-03T05:19:43.001Z,13.28
2017-10-03T05:20:42.997Z,13.26
2017-10-03T05:21:42.669Z,13.26
2017-10-03T05:22:42.980Z,13.25
2017-10-03T05:23:42.976Z,13.17
2017-10-03T05:24:42.961Z,13.23
2017-10-03T05:25:42.991Z,13.15
2017-10-03T05:26:42.954Z,13.15
2017-10-03T05:27:42.943Z,13.14
2017-10-03T05:28:42.944Z,13.29
2017-10-03T05:29:42.925Z,13.12
2017-10-03T05:30:42.921Z,13.26
2017-10-03T05:31:42.602Z,13.22
2017-10-03T05:32:42.902Z,13.14
2017-10-03T05:33:42.899Z,13.19
2017-10-03T05:34:42.893Z,13.19
2017-10-03T05:35:42.566Z,13.25
2017-10-03T05:36:42.878Z,13.32
2017-10-03T05:37:42.877Z,13.29
2017-10-03T05:38:42.863Z,13.36
2017-10-03T05:39:42.857Z,13.41
2017-10-03T05:40:42.848Z,13.45
2017-10-03T05:41:42.843Z,13.38
2017-10-03T05:42:42.834Z,13.39
2017-10-03T05:43:42.829Z,13.49
2017-10-03T05:44:42.825Z,13.51
2017-10-03T05:45:42.809Z,13.62
2017-10-03T05:46:42.807Z,13.51
2017-10-03T05:47:42.802Z,13.62
2017-10-03T05:48:42.794Z,13.62
2017-10-03T05:49:42.784Z,13.59
2017-10-03T05:50:42.776Z,13.63
2017-10-03T05:51:42.786Z,13.7
2017-10-03T05:52:42.447Z,13.75
2017-10-03T05:53:42.757Z,13.78
2017-10-03T05:54:42.745Z,13.78
2017-10-03T05:55:42.745Z,13.88
2017-10-03T05:56:42.418Z,13.87
2017-10-03T05:57:42.408Z,13.88
2017-10-03T05:58:42.399Z,13.87
2017-10-03T05:59:42.393Z,14
2017-10-03T06:00:42.706Z,14.03
2017-10-03T06:01:42.385Z,14.04
2017-10-03T06:02:42.693Z,14.1
2017-10-03T06:03:42.686Z,14.12
2017-10-03T06:04:42.683Z,14.2
2017-10-03T06:05:42.671Z,14.15
2017-10-03T06:06:42.768Z,14.29
2017-10-03T06:07:42.341Z,14.37
2017-10-03T06:08:42.650Z,14.37
2017-10-03T06:09:42.657Z,14.2
2017-10-03T06:10:42.638Z,14.24
2017-10-03T06:11:42.638Z,14.28
2017-10-03T06:12:42.628Z,14.36
2017-10-03T06:13:42.619Z,14.32
2017-10-03T06:14:42.618Z,14.36
2017-10-03T06:15:42.610Z,14.37
2017-10-03T06:16:42.601Z,14.39
2017-10-03T06:17:42.277Z,14.39
2017-10-03T06:18:42.268Z,14.4
2017-10-03T06:19:42.587Z,14.47
2017-10-03T06:20:42.577Z,14.47
2017-10-03T06:21:42.579Z,14.54
2017-10-03T06:22:42.562Z,14.54
2017-10-03T06:23:42.236Z,14.47
2017-10-03T06:24:41.911Z,14.57
2017-10-03T06:25:42.546Z,14.5
2017-10-03T06:26:42.537Z,14.6
2017-10-03T06:27:42.211Z,14.57
2017-10-03T06:28:42.523Z,14.68
2017-10-03T06:29:42.200Z,14.64
2017-10-03T06:30:42.518Z,14.65
2017-10-03T06:31:42.503Z,14.57
2017-10-03T06:32:42.532Z,14.57
2017-10-03T06:33:42.495Z,14.7
2017-10-03T06:34:42.487Z,14.62
2017-10-03T06:35:42.483Z,14.65
2017-10-03T06:36:42.474Z,14.7
2017-10-03T06:37:42.573Z,14.77
2017-10-03T06:38:42.463Z,14.77
2017-10-03T06:39:42.463Z,14.84
2017-10-03T06:40:42.451Z,14.88
2017-10-03T06:41:42.451Z,14.89
2017-10-03T06:42:42.443Z,14.95
2017-10-03T06:43:42.116Z,14.94
2017-10-03T06:44:42.425Z,14.95
2017-10-03T06:45:42.101Z,15.02
2017-10-03T06:46:42.413Z,15.06
2017-10-03T06:47:42.418Z,15.01
2017-10-03T06:48:42.402Z,15.06
2017-10-03T06:49:42.395Z,15.1
2017-10-03T06:50:42.392Z,15.11
2017-10-03T06:51:42.385Z,15.1
2017-10-03T06:52:42.377Z,15.02
2017-10-03T06:53:42.051Z,15.06
2017-10-03T06:54:42.367Z,15.03
2017-10-03T06:55:42.363Z,15.06
2017-10-03T06:56:42.355Z,15.09
2017-10-03T06:57:42.028Z,15.06
2017-10-03T06:58:42.342Z,15.03
2017-10-03T06:59:42.341Z,15.07
2017-10-03T07:00:42.328Z,15.02
2017-10-03T07:01:42.320Z,15.07
2017-10-03T07:02:42.322Z,14.99
2017-10-03T07:03:42.311Z,15.02
2017-10-03T07:04:42.307Z,14.92
2017-10-03T07:05:42.302Z,14.98
2017-10-03T07:06:42.293Z,14.95
2017-10-03T07:07:42.288Z,14.96
2017-10-03T07:08:41.966Z,14.92
2017-10-03T07:09:42.274Z,14.92
2017-10-03T07:10:42.269Z,15.02
2017-10-03T07:11:42.270Z,14.94
2017-10-03T07:12:42.259Z,14.99
2017-10-03T07:13:42.250Z,15.06
2017-10-03T07:14:42.247Z,15.21
2017-10-03T07:15:42.247Z,15.17
2017-10-03T07:16:42.236Z,15.36
2017-10-03T07:17:42.229Z,15.32
2017-10-03T07:18:42.225Z,15.41
2017-10-03T07:19:41.901Z,15.38
2017-10-03T07:20:42.218Z,15.5
2017-10-03T07:21:42.203Z,15.56
2017-10-03T07:22:41.564Z,15.69
2017-10-03T07:23:42.200Z,15.65
2017-10-03T07:24:42.188Z,15.82
2017-10-03T07:25:41.867Z,15.96
2017-10-03T07:26:42.177Z,16.01
2017-10-03T07:27:42.176Z,16.12
2017-10-03T07:28:42.171Z,16.28
2017-10-03T07:29:42.162Z,16.41
2017-10-03T07:30:41.841Z,16.61
2017-10-03T07:31:42.157Z,16.66
2017-10-03T07:32:41.509Z,16.78
2017-10-03T07:33:42.146Z,16.86
2017-10-03T07:34:42.137Z,16.94
2017-10-03T07:35:41.816Z,17.04
2017-10-03T07:36:42.136Z,17.03
2017-10-03T07:37:42.132Z,17.12
2017-10-03T07:38:42.121Z,17.14
2017-10-03T07:39:41.478Z,17.16
2017-10-03T07:40:42.115Z,17.16
2017-10-03T07:41:42.112Z,17.23
2017-10-03T07:42:42.105Z,17.22
2017-10-03T07:43:42.102Z,17.21
2017-10-03T07:44:42.097Z,17.12
2017-10-03T07:45:41.774Z,17.22
2017-10-03T07:46:42.088Z,17.07
2017-10-03T07:47:42.083Z,17.06
2017-10-03T07:48:41.759Z,16.98
2017-10-03T07:49:42.094Z,17.01
2017-10-03T07:50:42.068Z,16.94
2017-10-03T07:51:42.064Z,16.98
2017-10-03T07:52:42.061Z,16.94
2017-10-03T07:53:41.740Z,17
2017-10-03T07:54:41.736Z,17.01
2017-10-03T07:55:42.053Z,17.06
2017-10-03T07:56:41.728Z,17.07
2017-10-03T07:57:41.723Z,17.14
2017-10-03T07:58:41.719Z,17.18
2017-10-03T07:59:42.039Z,17.07
2017-10-03T08:00:41.711Z,17.11
2017-10-03T08:01:42.033Z,17.07
2017-10-03T08:02:41.709Z,17.16
2017-10-03T08:03:41.699Z,17.18
2017-10-03T08:04:42.017Z,17.19
2017-10-03T08:05:41.373Z,17.34
2017-10-03T08:06:42.001Z,17.36
2017-10-03T08:07:41.682Z,17.43
2017-10-03T08:08:41.678Z,17.51
2017-10-03T08:09:41.990Z,17.48
2017-10-03T08:10:41.990Z,17.51
2017-10-03T08:11:41.985Z,17.48
2017-10-03T08:12:41.986Z,17.54
2017-10-03T08:13:41.978Z,17.62
2017-10-03T08:14:41.972Z,17.56
2017-10-03T08:15:41.967Z,17.58
2017-10-03T08:16:41.967Z,17.75
2017-10-03T08:17:41.966Z,17.82
2017-10-03T08:18:41.636Z,17.9
2017-10-03T08:19:41.956Z,18.14
2017-10-03T08:20:41.949Z,18.23
2017-10-03T08:21:41.626Z,18.27
2017-10-03T08:22:41.962Z,18.29
2017-10-03T08:23:41.301Z,18.29
2017-10-03T08:24:41.616Z,18.42
2017-10-03T08:25:41.933Z,18.32
2017-10-03T08:26:41.928Z,18.26
2017-10-03T08:27:41.608Z,18.23
2017-10-03T08:28:41.924Z,18.23
2017-10-03T08:29:41.916Z,18.26
2017-10-03T08:30:41.915Z,18.27
2017-10-03T08:31:41.913Z,18.27
2017-10-03T08:32:41.907Z,18.32
2017-10-03T08:33:41.585Z,18.27
2017-10-03T08:34:41.898Z,18.32
2017-10-03T08:35:41.897Z,18.45
2017-10-03T08:36:41.577Z,18.51
2017-10-03T08:37:41.252Z,18.58
2017-10-03T08:38:41.573Z,18.66
2017-10-03T08:39:41.565Z,18.8
2017-10-03T08:40:41.565Z,18.87
2017-10-03T08:41:41.556Z,18.95
2017-10-03T08:42:41.555Z,19.04
2017-10-03T08:43:41.549Z,19.07
2017-10-03T08:44:41.553Z,19.26
2017-10-03T08:45:41.864Z,19.37
2017-10-03T08:46:41.568Z,19.46
2017-10-03T08:47:42.156Z,19.55
2017-10-03T08:48:41.535Z,19.58
2017-10-03T08:49:41.214Z,19.59
2017-10-03T08:50:41.850Z,19.65
2017-10-03T08:51:41.843Z,19.65
2017-10-03T08:52:41.207Z,19.65
2017-10-03T08:53:41.522Z,19.66
2017-10-03T08:54:41.517Z,19.63
2017-10-03T08:55:41.514Z,19.66
2017-10-03T08:56:41.512Z,19.8
2017-10-03T08:57:41.509Z,19.74
2017-10-03T08:58:41.829Z,19.81
2017-10-03T08:59:41.571Z,19.78
2017-10-03T09:00:41.499Z,19.88
2017-10-03T09:01:41.505Z,19.88
2017-10-03T09:02:41.498Z,19.94
2017-10-03T09:03:41.493Z,19.88
2017-10-03T09:04:41.808Z,19.88
2017-10-03T09:05:41.486Z,20.01
2017-10-03T09:06:41.486Z,19.99
2017-10-03T09:07:41.487Z,20.03
2017-10-03T09:08:41.164Z,20.13
2017-10-03T09:09:41.161Z,20.18
2017-10-03T09:10:41.796Z,20.13
2017-10-03T09:11:41.795Z,20.26
2017-10-03T09:12:41.795Z,20.18
2017-10-03T09:13:41.785Z,20.05
2017-10-03T09:14:41.791Z,20.05
2017-10-03T09:15:41.813Z,20.03
2017-10-03T09:16:41.785Z,20.02
2017-10-03T09:17:41.461Z,19.92
2017-10-03T09:18:41.779Z,19.86
2017-10-03T09:19:41.780Z,19.91
2017-10-03T09:20:41.771Z,20.1
2017-10-03T09:21:41.769Z,20.11
2017-10-03T09:22:41.770Z,20.08
2017-10-03T09:23:41.765Z,20.06
2017-10-03T09:24:41.766Z,20.05
2017-10-03T09:25:41.447Z,19.91
2017-10-03T09:26:41.443Z,19.98
2017-10-03T09:27:41.758Z,19.95
2017-10-03T09:28:41.760Z,19.92
2017-10-03T09:29:41.752Z,19.94
2017-10-03T09:30:41.750Z,20.03
2017-10-03T09:31:41.748Z,20.05
2017-10-03T09:32:41.746Z,19.94
2017-10-03T09:33:41.744Z,19.87
2017-10-03T09:34:41.422Z,19.86
2017-10-03T09:35:41.738Z,19.71
2017-10-03T09:36:41.417Z,19.69
2017-10-03T09:37:41.419Z,19.66
2017-10-03T09:38:41.731Z,19.68
2017-10-03T09:39:41.729Z,19.62
2017-10-03T09:40:41.729Z,19.63
2017-10-03T09:41:41.405Z,19.66
2017-10-03T09:42:41.402Z,19.76
2017-10-03T09:43:41.726Z,19.71
2017-10-03T09:44:41.716Z,19.65
2017-10-03T09:45:41.712Z,19.74
2017-10-03T09:46:41.711Z,19.77
2017-10-03T09:47:41.707Z,19.8
2017-10-03T09:48:41.710Z,19.83
2017-10-03T09:49:41.709Z,19.87
2017-10-03T09:50:41.698Z,19.86
2017-10-03T09:51:41.692Z,19.83
2017-10-03T09:52:41.694Z,19.71
2017-10-03T09:53:41.687Z,19.76
2017-10-03T09:54:41.689Z,19.77
2017-10-03T09:55:41.685Z,19.83
2017-10-03T09:56:41.680Z,19.83
2017-10-03T09:57:41.680Z,19.78
2017-10-03T09:58:41.674Z,19.78
2017-10-03T09:59:41.677Z,19.87
2017-10-03T10:00:41.672Z,19.81
2017-10-03T10:01:41.665Z,19.86
2017-10-03T10:02:41.668Z,19.71
2017-10-03T10:03:41.671Z,19.76
2017-10-03T10:04:41.658Z,19.65
2017-10-03T10:05:41.662Z,19.78
2017-10-03T10:06:41.653Z,19.83
2017-10-03T10:07:41.650Z,19.91
2017-10-03T10:08:41.330Z,19.94
2017-10-03T10:09:41.646Z,19.83
2017-10-03T10:10:41.327Z,19.78
2017-10-03T10:11:41.639Z,19.77
2017-10-03T10:12:41.639Z,19.84
2017-10-03T10:13:41.637Z,19.78
2017-10-03T10:14:41.315Z,19.74
2017-10-03T10:15:41.631Z,19.69
2017-10-03T10:16:41.306Z,19.62
2017-10-03T10:17:41.629Z,19.61
2017-10-03T10:18:41.622Z,19.51
2017-10-03T10:19:41.305Z,19.56
2017-10-03T10:20:41.618Z,19.54
2017-10-03T10:21:41.614Z,19.48
2017-10-03T10:22:41.612Z,19.55
2017-10-03T10:23:41.632Z,19.47
2017-10-03T10:24:41.287Z,19.62
2017-10-03T10:25:41.608Z,19.51
2017-10-03T10:26:41.605Z,19.59
2017-10-03T10:27:41.602Z,19.58
2017-10-03T10:28:41.609Z,19.77
2017-10-03T10:29:41.279Z,19.76
2017-10-03T10:30:41.272Z,19.76
2017-10-03T10:31:41.271Z,19.81
2017-10-03T10:32:41.273Z,19.95
2017-10-03T10:33:41.593Z,19.91
2017-10-03T10:34:41.579Z,19.98
2017-10-03T10:35:41.579Z,20.06
2017-10-03T10:36:41.254Z,20.23
2017-10-03T10:37:41.581Z,20.43
2017-10-03T10:38:41.252Z,20.52
2017-10-03T10:39:41.570Z,20.61
2017-10-03T10:40:41.566Z,20.73
2017-10-03T10:41:41.562Z,20.95
2017-10-03T10:42:41.564Z,21.06
2017-10-03T10:43:41.558Z,21.13
2017-10-03T10:44:41.779Z,21.24
2017-10-03T10:45:41.557Z,21.37
2017-10-03T10:46:41.560Z,21.37
2017-10-03T10:47:41.553Z,21.52
2017-10-03T10:48:41.552Z,21.56
2017-10-03T10:49:40.911Z,21.59
2017-10-03T10:50:41.553Z,21.62
2017-10-03T10:51:41.556Z,21.54
2017-10-03T10:52:41.228Z,21.59
2017-10-03T10:53:41.546Z,21.58
2017-10-03T10:54:41.547Z,21.43
2017-10-03T10:55:41.227Z,21.52
2017-10-03T10:56:41.545Z,21.52
2017-10-03T10:57:41.231Z,21.38
2017-10-03T10:58:41.544Z,21.35
2017-10-03T10:59:41.545Z,21.38
2017-10-03T11:00:41.221Z,21.35
2017-10-03T11:01:41.536Z,21.4
2017-10-03T11:02:41.217Z,21.25
2017-10-03T11:03:41.539Z,21.31
2017-10-03T11:04:41.533Z,21.21
2017-10-03T11:05:41.552Z,21.25
2017-10-03T11:06:41.213Z,21.14
2017-10-03T11:07:41.531Z,21.1
2017-10-03T11:08:41.209Z,21.04
2017-10-03T11:09:41.525Z,20.84
2017-10-03T11:10:41.530Z,20.62
2017-10-03T11:11:41.525Z,20.58
2017-10-03T11:12:40.884Z,20.36
2017-10-03T11:13:41.524Z,20.29
2017-10-03T11:14:41.522Z,20.23
2017-10-03T11:15:41.518Z,20.06
2017-10-03T11:16:41.197Z,20.08
2017-10-03T11:17:41.520Z,20.05
2017-10-03T11:18:41.516Z,19.94
2017-10-03T11:19:41.506Z,19.87
2017-10-03T11:20:41.186Z,19.88
2017-10-03T11:21:41.508Z,19.91
2017-10-03T11:22:41.503Z,19.86
2017-10-03T11:23:41.498Z,19.74
2017-10-03T11:24:41.179Z,19.69
2017-10-03T11:25:41.174Z,19.66
2017-10-03T11:26:40.857Z,19.58
2017-10-03T11:27:41.494Z,19.41
2017-10-03T11:28:41.494Z,19.39
2017-10-03T11:29:41.163Z,19.41
2017-10-03T11:30:41.162Z,19.28
2017-10-03T11:31:41.483Z,19.37
2017-10-03T11:32:41.474Z,19.32
2017-10-03T11:33:41.152Z,19.41
2017-10-03T11:34:41.476Z,19.43
2017-10-03T11:35:41.465Z,19.47
2017-10-03T11:36:40.829Z,19.5
2017-10-03T11:37:41.466Z,19.55
2017-10-03T11:38:41.460Z,19.63
2017-10-03T11:39:41.457Z,19.73
2017-10-03T11:40:41.455Z,19.8
2017-10-03T11:41:41.452Z,19.86
2017-10-03T11:42:41.130Z,19.95
2017-10-03T11:43:41.443Z,19.96
2017-10-03T11:44:41.123Z,20.06
2017-10-03T11:45:41.439Z,20.17
2017-10-03T11:46:41.436Z,20.2
2017-10-03T11:47:41.436Z,20.1
2017-10-03T11:48:41.447Z,20.03
2017-10-03T11:49:41.430Z,19.87
2017-10-03T11:50:41.103Z,19.92
2017-10-03T11:51:41.426Z,19.83
2017-10-03T11:52:41.428Z,19.78
2017-10-03T11:53:41.417Z,19.73
2017-10-03T11:54:41.413Z,19.54
2017-10-03T11:55:41.411Z,19.44
2017-10-03T11:56:41.410Z,19.29
2017-10-03T11:57:41.088Z,19.16
2017-10-03T11:58:41.406Z,19.02
2017-10-03T11:59:41.404Z,18.98
2017-10-03T12:00:41.398Z,18.84
2017-10-03T12:01:41.399Z,18.67
2017-10-03T12:02:41.394Z,18.6
2017-10-03T12:03:41.389Z,18.44
2017-10-03T12:04:41.069Z,18.3
2017-10-03T12:05:41.383Z,18.32
2017-10-03T12:06:41.384Z,18.23
2017-10-03T12:07:41.377Z,18.03
2017-10-03T12:08:41.370Z,17.92
2017-10-03T12:09:41.371Z,17.82
2017-10-03T12:10:41.367Z,17.81
2017-10-03T12:11:41.041Z,17.63
2017-10-03T12:12:41.361Z,17.56
2017-10-03T12:13:41.036Z,17.48
2017-10-03T12:14:41.353Z,17.37
2017-10-03T12:15:41.027Z,17.46
2017-10-03T12:16:41.343Z,17.43
2017-10-03T12:17:41.339Z,17.4
2017-10-03T12:18:41.337Z,17.4
2017-10-03T12:19:41.337Z,17.41
2017-10-03T12:20:41.330Z,17.28
2017-10-03T12:21:41.005Z,17.23
2017-10-03T12:22:41.321Z,17.23
2017-10-03T12:23:41.325Z,17.23
2017-10-03T12:24:41.311Z,17.15
2017-10-03T12:25:41.310Z,17.14
2017-10-03T12:26:41.304Z,17.19
2017-10-03T12:27:41.018Z,17.15
2017-10-03T12:28:41.294Z,17.18
2017-10-03T12:29:40.969Z,17.06
2017-10-03T12:30:40.966Z,17.06
2017-10-03T12:31:41.281Z,17.19
2017-10-03T12:32:41.279Z,17.12
2017-10-03T12:33:41.273Z,17.08
2017-10-03T12:34:40.950Z,17.21
2017-10-03T12:35:41.283Z,17.21
2017-10-03T12:36:41.261Z,17.08
2017-10-03T12:37:41.253Z,17.07
2017-10-03T12:38:41.250Z,17.12
2017-10-03T12:39:41.277Z,17.22
2017-10-03T12:40:40.922Z,17.11
2017-10-03T12:41:40.916Z,17.18
2017-10-03T12:42:41.229Z,17.23
2017-10-03T12:43:40.589Z,17.19
2017-10-03T12:44:41.223Z,17.22
2017-10-03T12:45:41.219Z,17.21
2017-10-03T12:46:41.215Z,17.21
2017-10-03T12:47:41.208Z,17.28
2017-10-03T12:48:41.233Z,17.36
2017-10-03T12:49:41.204Z,17.25
2017-10-03T12:50:41.200Z,17.3
2017-10-03T12:51:41.445Z,17.36
2017-10-03T12:52:40.865Z,17.33
2017-10-03T12:53:41.184Z,17.41
2017-10-03T12:54:40.858Z,17.43
2017-10-03T12:55:41.176Z,17.48